createdAt,value
2023-03-10T00:00:54.672Z,9.40
2023-03-10T00:03:22.666Z,8.40
2023-03-10T00:05:50.889Z,9.45
2023-03-10T00:08:20.256Z,9.18
2023-03-10T00:10:48.296Z,8.65
2023-03-10T00:13:16.260Z,8.65
2023-03-10T00:15:44.270Z,8.32
2023-03-10T00:18:12.305Z,8.65
2023-03-10T00:20:40.371Z,9.10
2023-03-10T00:23:08.402Z,9.07
2023-03-10T00:25:37.810Z,8.90
2023-03-10T00:28:05.860Z,9.18
2023-03-10T00:30:35.267Z,8.00
2023-03-10T00:33:04.410Z,8.48
2023-03-10T00:35:32.354Z,7.97
2023-03-10T00:38:00.257Z,8.52
2023-03-10T00:40:28.201Z,8.15
2023-03-10T00:42:59.461Z,8.70
2023-03-10T00:45:27.404Z,8.50
2023-03-10T00:47:55.437Z,8.40
2023-03-10T00:50:23.435Z,9.40
2023-03-10T00:52:51.454Z,8.23
2023-03-10T00:55:19.568Z,7.65
2023-03-10T00:57:47.567Z,9.20
2023-03-10T01:00:18.071Z,9.70
2023-03-10T01:02:46.113Z,7.95
2023-03-10T01:05:15.804Z,8.50
2023-03-10T01:07:43.858Z,8.63
2023-03-10T01:10:15.484Z,7.70
2023-03-10T01:12:43.619Z,8.20
2023-03-10T01:15:13.181Z,7.90
2023-03-10T01:17:42.464Z,6.60
2023-03-10T01:20:15.155Z,7.07
2023-03-10T01:22:43.570Z,7.30
2023-03-10T01:25:15.425Z,7.32
2023-03-10T01:27:43.388Z,7.15
2023-03-10T01:30:13.121Z,7.90
2023-03-10T01:32:42.578Z,7.28
2023-03-10T01:35:11.679Z,6.85
2023-03-10T01:37:39.677Z,7.03
2023-03-10T01:40:09.554Z,6.88
2023-03-10T01:42:37.494Z,7.70
2023-03-10T01:45:08.020Z,7.82
2023-03-10T01:47:36.059Z,7.50
2023-03-10T01:50:07.709Z,6.82
2023-03-10T01:52:37.447Z,7.50
2023-03-10T01:55:10.852Z,6.88
2023-03-10T01:57:41.451Z,7.22
2023-03-10T02:00:12.791Z,7.10
2023-03-10T02:02:47.242Z,7.30
2023-03-10T02:05:17.133Z,7.20
2023-03-10T02:07:45.362Z,6.80
2023-03-10T02:10:15.161Z,7.50
2023-03-10T02:12:43.534Z,7.60
2023-03-10T02:15:12.496Z,7.10
2023-03-10T02:17:41.441Z,7.78
2023-03-10T02:20:21.383Z,7.57
2023-03-10T02:22:49.759Z,7.88
2023-03-10T02:25:30.543Z,7.40
2023-03-10T02:28:00.592Z,7.68
2023-03-10T02:30:32.644Z,7.13
2023-03-10T02:33:04.992Z,9.15
2023-03-10T02:35:33.030Z,7.40
2023-03-10T02:38:01.062Z,7.60
2023-03-10T02:40:35.285Z,7.47
2023-03-10T02:43:08.915Z,8.13
2023-03-10T02:45:40.448Z,7.50
2023-03-10T02:48:09.457Z,7.50
2023-03-10T02:50:40.470Z,8.65
2023-03-10T02:53:12.882Z,7.55
2023-03-10T02:55:41.127Z,7.40
2023-03-10T02:58:10.687Z,7.18
2023-03-10T03:00:39.297Z,7.47
2023-03-10T03:03:07.965Z,7.90
2023-03-10T03:05:35.988Z,7.55
2023-03-10T03:08:04.121Z,7.35
2023-03-10T03:10:32.431Z,8.82
2023-03-10T03:13:00.646Z,7.90
2023-03-10T03:15:29.985Z,7.60
2023-03-10T03:17:58.657Z,7.82
2023-03-10T03:20:27.134Z,7.90
2023-03-10T03:22:56.021Z,7.88
2023-03-10T03:25:24.633Z,8.27
2023-03-10T03:27:52.624Z,9.15
2023-03-10T03:30:22.546Z,8.68
2023-03-10T03:32:52.584Z,7.40
2023-03-10T03:35:24.422Z,7.68
2023-03-10T03:37:52.794Z,7.65
2023-03-10T03:40:21.549Z,8.40
2023-03-10T03:42:51.507Z,7.25
2023-03-10T03:45:21.587Z,7.97
2023-03-10T03:47:50.951Z,8.00
2023-03-10T03:50:20.562Z,8.65
2023-03-10T03:52:49.158Z,8.43
2023-03-10T03:55:18.544Z,8.60
2023-03-10T03:57:47.589Z,7.82
2023-03-10T04:00:19.204Z,8.85
2023-03-10T04:02:47.468Z,8.35
2023-03-10T04:05:17.708Z,8.90
2023-03-10T04:07:48.213Z,8.60
2023-03-10T04:10:19.238Z,8.43
2023-03-10T04:12:47.607Z,8.85
2023-03-10T04:15:15.677Z,8.70
2023-03-10T04:17:43.639Z,9.18
2023-03-10T04:20:13.488Z,9.63
2023-03-10T04:22:43.251Z,9.13
2023-03-10T04:25:12.193Z,9.25
2023-03-10T04:27:40.205Z,9.20
2023-03-10T04:30:09.718Z,8.98
2023-03-10T04:32:37.761Z,8.80
2023-03-10T04:35:06.698Z,8.75
2023-03-10T04:37:34.701Z,8.00
2023-03-10T04:40:08.409Z,9.60
2023-03-10T04:42:36.995Z,9.13
2023-03-10T04:45:05.694Z,8.90
2023-03-10T04:47:33.743Z,8.65
2023-03-10T04:50:01.749Z,8.25
2023-03-10T04:52:29.734Z,8.30
2023-03-10T04:54:57.756Z,7.00
2023-03-10T04:57:27.113Z,8.73
2023-03-10T04:59:55.201Z,8.38
2023-03-10T05:02:23.273Z,7.43
2023-03-10T05:04:51.366Z,8.02
2023-03-10T05:07:19.443Z,7.38
2023-03-10T05:09:48.311Z,7.23
2023-03-10T05:12:16.418Z,8.32
2023-03-10T05:14:45.859Z,8.77
2023-03-10T05:17:14.217Z,7.65
2023-03-10T05:19:42.133Z,7.40
2023-03-10T05:22:12.378Z,7.93
2023-03-10T05:24:40.729Z,7.65
2023-03-10T05:27:10.499Z,10.00
2023-03-10T05:29:40.161Z,7.97
2023-03-10T05:32:09.746Z,8.07
2023-03-10T05:34:37.860Z,7.70
2023-03-10T05:37:05.988Z,7.95
2023-03-10T05:39:33.986Z,7.53
2023-03-10T05:42:02.206Z,7.88
2023-03-10T05:44:30.267Z,8.02
2023-03-10T05:46:58.275Z,8.52
2023-03-10T05:49:27.768Z,8.90
2023-03-10T05:51:55.702Z,7.70
2023-03-10T05:54:23.783Z,8.90
2023-03-10T05:56:51.872Z,8.20
2023-03-10T05:59:19.858Z,9.70
2023-03-10T06:01:47.823Z,9.45
2023-03-10T06:04:15.993Z,9.57
2023-03-10T06:06:45.363Z,10.25
2023-03-10T06:09:13.391Z,7.82
2023-03-10T06:11:41.341Z,9.55
2023-03-10T06:14:09.339Z,8.77
2023-03-10T06:16:37.392Z,8.30
2023-03-10T06:19:05.408Z,8.32
2023-03-10T06:21:33.343Z,9.63
2023-03-10T06:24:03.146Z,8.45
2023-03-10T06:26:31.170Z,9.38
2023-03-10T06:28:59.228Z,9.35
2023-03-10T06:31:27.326Z,10.33
2023-03-10T06:33:55.728Z,10.38
2023-03-10T06:36:26.428Z,7.85
2023-03-10T06:38:55.005Z,9.25
2023-03-10T06:41:24.691Z,8.27
2023-03-10T06:43:52.728Z,7.85
2023-03-10T06:46:20.827Z,7.50
2023-03-10T06:48:48.800Z,8.90
2023-03-10T06:51:19.254Z,8.23
2023-03-10T06:53:49.152Z,8.73
2023-03-10T06:56:18.911Z,8.18
2023-03-10T06:58:49.264Z,7.72
2023-03-10T07:01:25.954Z,7.20
2023-03-10T07:03:54.228Z,7.05
2023-03-10T07:06:23.025Z,7.80
2023-03-10T07:08:52.015Z,6.63
2023-03-10T07:11:20.181Z,7.40
2023-03-10T07:13:49.514Z,5.67
2023-03-10T07:16:17.711Z,6.28
2023-03-10T07:18:46.279Z,9.70
2023-03-10T07:21:17.463Z,6.70
2023-03-10T07:23:46.084Z,7.40
2023-03-10T07:26:16.020Z,5.63
2023-03-10T07:28:43.931Z,5.93
2023-03-10T07:31:15.313Z,6.00
2023-03-10T07:33:43.478Z,6.88
2023-03-10T07:36:13.802Z,6.10
2023-03-10T07:38:42.387Z,6.03
2023-03-10T07:41:11.866Z,5.40
2023-03-10T07:43:39.922Z,4.93
2023-03-10T07:46:09.739Z,4.80
2023-03-10T07:48:39.446Z,5.22
2023-03-10T07:51:07.894Z,5.90
2023-03-10T07:53:36.095Z,5.30
2023-03-10T07:56:06.195Z,6.10
2023-03-10T07:58:34.548Z,4.50
2023-03-10T08:01:02.842Z,5.50
2023-03-10T08:03:31.163Z,4.78
2023-03-10T08:06:00.751Z,3.95
2023-03-10T08:08:29.313Z,4.85
2023-03-10T08:11:04.957Z,5.30
2023-03-10T08:13:33.399Z,4.82
2023-03-10T08:16:02.471Z,4.30
2023-03-10T08:18:31.833Z,5.00
2023-03-10T08:21:04.985Z,4.28
2023-03-10T08:23:33.119Z,3.92
2023-03-10T08:26:02.276Z,4.20
2023-03-10T08:28:31.393Z,3.95
2023-03-10T08:31:05.408Z,3.55
2023-03-10T08:33:33.648Z,3.65
2023-03-10T08:36:12.048Z,3.72
2023-03-10T08:38:41.126Z,2.95
2023-03-10T08:41:14.508Z,4.30
2023-03-10T08:43:42.568Z,3.60
2023-03-10T08:46:13.666Z,3.00
2023-03-10T08:48:42.990Z,3.10
2023-03-10T08:51:15.627Z,2.72
2023-03-10T08:53:46.694Z,2.97
2023-03-10T08:56:15.815Z,3.50
2023-03-10T08:58:44.089Z,3.90
2023-03-10T09:01:12.681Z,2.30
2023-03-10T09:03:43.574Z,2.58
2023-03-10T09:06:13.221Z,2.50
2023-03-10T09:08:41.463Z,2.90
2023-03-10T09:11:09.828Z,2.72
2023-03-10T09:13:37.840Z,2.60
2023-03-10T09:16:06.363Z,2.70
2023-03-10T09:18:34.416Z,2.20
2023-03-10T09:21:02.771Z,2.10
2023-03-10T09:23:32.126Z,2.40
2023-03-10T09:26:00.082Z,2.00
2023-03-10T09:28:28.123Z,2.80
2023-03-10T09:30:56.141Z,2.53
2023-03-10T09:33:24.988Z,1.88
2023-03-10T09:36:05.871Z,1.80
2023-03-10T09:38:36.698Z,1.92
2023-03-10T09:41:20.946Z,1.75
2023-03-10T09:43:56.758Z,2.15
2023-03-10T09:46:28.130Z,3.25
2023-03-10T09:49:06.054Z,2.40
2023-03-10T09:51:34.040Z,2.00
2023-03-10T09:54:28.938Z,2.65
2023-03-10T09:56:59.833Z,2.20
2023-03-10T09:59:36.429Z,2.30
2023-03-10T10:02:15.971Z,2.67
2023-03-10T10:04:45.164Z,2.70
2023-03-10T10:07:18.530Z,2.00
2023-03-10T10:09:53.593Z,2.00
2023-03-10T10:12:23.912Z,2.10
2023-03-10T10:14:57.621Z,2.40
2023-03-10T10:17:35.466Z,3.10
2023-03-10T10:20:17.847Z,2.58
2023-03-10T10:22:45.863Z,2.33
2023-03-10T10:25:20.262Z,2.20
2023-03-10T10:27:52.710Z,2.92
2023-03-10T10:30:32.713Z,2.88
2023-03-10T10:33:02.302Z,2.90
2023-03-10T10:35:32.825Z,3.20
2023-03-10T10:38:03.266Z,2.90
2023-03-10T10:40:35.496Z,3.20
2023-03-10T10:43:07.707Z,2.70
2023-03-10T10:45:37.996Z,2.70
2023-03-10T10:48:06.916Z,2.33
2023-03-10T10:50:36.266Z,3.00
2023-03-10T10:53:20.855Z,3.23
2023-03-10T10:56:01.578Z,2.83
2023-03-10T10:58:32.511Z,3.28
2023-03-10T11:01:02.767Z,3.85
2023-03-10T11:03:33.643Z,3.00
2023-03-10T11:06:03.080Z,3.60
2023-03-10T11:08:35.075Z,3.00
2023-03-10T11:11:17.772Z,3.30
2023-03-10T11:13:59.415Z,2.80
2023-03-10T11:16:32.614Z,2.80
2023-03-10T11:19:08.504Z,2.70
2023-03-10T11:21:43.035Z,2.77
2023-03-10T11:24:16.669Z,3.50
2023-03-10T11:26:53.716Z,2.55
2023-03-10T11:29:32.844Z,2.40
2023-03-10T11:32:13.802Z,2.83
2023-03-10T11:34:46.906Z,2.70
2023-03-10T11:37:25.048Z,2.70
2023-03-10T11:40:08.145Z,3.53
2023-03-10T11:42:43.110Z,3.00
2023-03-10T11:45:28.215Z,3.05
2023-03-10T11:48:08.653Z,3.60
2023-03-10T11:50:43.430Z,3.33
2023-03-10T11:53:16.444Z,4.10
2023-03-10T11:55:45.527Z,3.92
2023-03-10T11:58:25.304Z,3.60
2023-03-10T12:00:55.415Z,3.60
2023-03-10T12:03:39.879Z,3.80
2023-03-10T12:06:11.906Z,4.47
2023-03-10T12:08:41.053Z,4.70
2023-03-10T12:11:15.734Z,5.07
2023-03-10T12:13:49.530Z,4.80
2023-03-10T12:16:21.398Z,4.45
2023-03-10T12:18:49.655Z,4.80
2023-03-10T12:21:22.834Z,4.60
2023-03-10T12:23:52.494Z,5.20
2023-03-10T12:26:55.418Z,5.72
2023-03-10T12:29:52.742Z,5.50
2023-03-10T12:32:47.271Z,6.30
2023-03-10T12:35:49.120Z,5.33
2023-03-10T12:38:32.212Z,7.10
2023-03-10T12:41:01.310Z,5.50
2023-03-10T12:43:56.207Z,6.00
2023-03-10T12:46:40.514Z,5.83
2023-03-10T12:49:23.421Z,5.65
2023-03-10T12:51:56.511Z,5.80
2023-03-10T12:54:54.956Z,6.60
2023-03-10T12:57:30.930Z,6.53
2023-03-10T13:00:06.257Z,6.50
2023-03-10T13:02:44.873Z,5.80
2023-03-10T13:05:22.389Z,5.75
2023-03-10T13:07:53.159Z,6.25
2023-03-10T13:10:31.687Z,5.78
2023-03-10T13:13:03.728Z,5.75
2023-03-10T13:15:34.901Z,6.70
2023-03-10T13:18:19.766Z,6.25
2023-03-10T13:20:48.785Z,6.20
2023-03-10T13:23:23.088Z,6.60
2023-03-10T13:25:56.078Z,6.47
2023-03-10T13:28:24.588Z,6.72
2023-03-10T13:30:52.781Z,7.68
2023-03-10T13:33:26.140Z,7.90
2023-03-10T13:35:54.484Z,7.78
2023-03-10T13:38:24.626Z,8.10
2023-03-10T13:41:00.999Z,8.07
2023-03-10T13:43:38.085Z,7.80
2023-03-10T13:46:09.864Z,8.70
2023-03-10T13:48:41.807Z,10.40
2023-03-10T13:51:19.377Z,9.27
2023-03-10T13:53:48.363Z,10.50
2023-03-10T13:56:19.556Z,10.75
2023-03-10T13:58:49.224Z,11.60
2023-03-10T14:01:21.611Z,10.63
2023-03-10T14:03:56.933Z,11.20
2023-03-10T14:06:25.903Z,11.15
2023-03-10T14:08:54.218Z,10.50
2023-03-10T14:11:33.544Z,8.57
2023-03-10T14:14:02.512Z,7.00
2023-03-10T14:16:54.116Z,7.25
2023-03-10T14:19:47.136Z,7.75
2023-03-10T14:22:28.725Z,9.75
2023-03-10T14:24:56.895Z,7.30
2023-03-10T14:27:25.683Z,8.98
2023-03-10T14:29:55.472Z,8.30
2023-03-10T14:32:24.346Z,8.18
2023-03-10T14:34:53.789Z,9.63
2023-03-10T14:37:21.790Z,9.60
2023-03-10T14:39:49.747Z,9.52
2023-03-10T14:42:25.171Z,9.88
2023-03-10T14:44:54.271Z,8.93
2023-03-10T14:47:22.399Z,7.93
2023-03-10T14:49:50.822Z,7.25
2023-03-10T14:52:20.384Z,6.82
2023-03-10T14:54:48.336Z,7.00
2023-03-10T14:57:20.915Z,8.48
2023-03-10T14:59:49.144Z,5.87
2023-03-10T15:02:23.431Z,6.82
2023-03-10T15:04:51.519Z,6.30
2023-03-10T15:07:20.924Z,7.18
2023-03-10T15:09:54.567Z,6.40
2023-03-10T15:12:27.191Z,6.65
2023-03-10T15:14:56.175Z,5.47
2023-03-10T15:17:24.160Z,4.80
2023-03-10T15:19:52.129Z,5.55
2023-03-10T15:22:21.501Z,5.40
2023-03-10T15:24:49.889Z,6.88
2023-03-10T15:27:17.879Z,6.70
2023-03-10T15:29:45.809Z,5.30
2023-03-10T15:32:13.775Z,7.50
2023-03-10T15:34:41.737Z,5.53
2023-03-10T15:37:09.703Z,5.85
2023-03-10T15:39:39.046Z,5.68
2023-03-10T15:42:07.296Z,6.72
2023-03-10T15:44:35.312Z,5.40
2023-03-10T15:47:03.333Z,4.15
2023-03-10T15:49:31.267Z,3.92
2023-03-10T15:51:59.451Z,3.70
2023-03-10T15:54:27.541Z,2.85
2023-03-10T15:56:56.920Z,3.83
2023-03-10T15:59:25.069Z,4.20
2023-03-10T16:01:53.603Z,2.60
2023-03-10T16:04:21.671Z,1.50
2023-03-10T16:06:49.653Z,3.05
2023-03-10T16:09:17.819Z,2.17
2023-03-10T16:11:45.799Z,2.55
2023-03-10T16:14:15.159Z,2.65
2023-03-10T16:16:43.140Z,3.83
2023-03-10T16:19:11.179Z,2.43
2023-03-10T16:21:39.148Z,3.40
2023-03-10T16:24:07.389Z,1.80
2023-03-10T16:26:35.437Z,2.95
2023-03-10T16:29:03.394Z,3.72
2023-03-10T16:31:33.129Z,4.38
2023-03-10T16:34:01.208Z,3.42
2023-03-10T16:36:30.349Z,2.08
2023-03-10T16:38:58.405Z,2.00
2023-03-10T16:41:28.552Z,2.10
2023-03-10T16:43:57.695Z,1.90
2023-03-10T16:46:30.015Z,3.80
2023-03-10T16:49:01.378Z,3.30
2023-03-10T16:51:31.221Z,2.60
2023-03-10T16:54:01.836Z,5.75
2023-03-10T16:56:31.352Z,2.73
2023-03-10T16:58:59.772Z,2.78
2023-03-10T17:01:27.892Z,1.90
2023-03-10T17:03:56.450Z,3.80
2023-03-10T17:06:29.233Z,2.40
2023-03-10T17:08:58.071Z,2.97
2023-03-10T17:11:28.341Z,5.07
2023-03-10T17:13:59.648Z,5.03
2023-03-10T17:16:30.111Z,1.52
2023-03-10T17:19:00.096Z,2.05
2023-03-10T17:21:33.171Z,2.97
2023-03-10T17:24:01.375Z,2.63
2023-03-10T17:26:29.418Z,2.17
2023-03-10T17:28:57.631Z,2.85
2023-03-10T17:31:27.634Z,2.20
2023-03-10T17:33:57.717Z,2.60
2023-03-10T17:36:25.724Z,2.85
2023-03-10T17:38:56.302Z,1.90
2023-03-10T17:41:24.814Z,2.70
2023-03-10T17:43:54.581Z,2.20
2023-03-10T17:46:24.820Z,4.93
2023-03-10T17:48:53.619Z,5.10
2023-03-10T17:51:23.990Z,4.60
2023-03-10T17:53:54.749Z,7.20
2023-03-10T17:56:23.078Z,10.90
2023-03-10T17:58:53.212Z,3.70
2023-03-10T18:01:24.036Z,5.57
2023-03-10T18:03:52.078Z,6.70
2023-03-10T18:06:22.514Z,3.08
2023-03-10T18:08:51.430Z,9.10
2023-03-10T18:11:22.201Z,4.60
2023-03-10T18:13:50.587Z,5.60
2023-03-10T18:16:21.240Z,4.05
2023-03-10T18:18:49.510Z,5.93
2023-03-10T18:21:18.782Z,5.40
2023-03-10T18:23:47.569Z,6.07
2023-03-10T18:26:18.538Z,4.85
2023-03-10T18:28:48.279Z,5.97
2023-03-10T18:31:19.662Z,7.90
2023-03-10T18:33:48.314Z,8.80
2023-03-10T18:36:17.933Z,2.30
2023-03-10T18:38:47.016Z,5.40
2023-03-10T18:41:15.401Z,7.03
2023-03-10T18:43:43.474Z,5.90
2023-03-10T18:46:12.851Z,8.10
2023-03-10T18:48:40.839Z,6.07
2023-03-10T18:51:09.010Z,4.35
2023-03-10T18:53:39.269Z,7.72
2023-03-10T18:56:08.328Z,7.73
2023-03-10T18:58:36.558Z,5.30
2023-03-10T19:01:09.852Z,11.15
2023-03-10T19:03:39.311Z,9.68
2023-03-10T19:06:08.165Z,6.18
2023-03-10T19:08:36.591Z,6.60
2023-03-10T19:11:06.815Z,11.05
2023-03-10T19:13:35.066Z,5.10
2023-03-10T19:16:07.358Z,9.48
2023-03-10T19:18:35.899Z,7.80
2023-03-10T19:21:06.156Z,7.07
2023-03-10T19:23:35.041Z,8.38
2023-03-10T19:26:03.486Z,7.20
2023-03-10T19:28:32.030Z,9.20
2023-03-10T19:31:00.216Z,5.20
2023-03-10T19:33:28.509Z,6.25
2023-03-10T19:36:03.369Z,8.95
2023-03-10T19:38:34.522Z,5.32
2023-03-10T19:41:02.596Z,4.93
2023-03-10T19:43:30.698Z,7.47
2023-03-10T19:46:02.402Z,4.65
2023-03-10T19:48:30.880Z,8.83
2023-03-10T19:51:00.155Z,11.73
2023-03-10T19:53:30.241Z,7.63
2023-03-10T19:56:03.570Z,9.75
2023-03-10T19:58:32.763Z,7.72
2023-03-10T20:01:01.084Z,5.50
2023-03-10T20:03:31.118Z,5.68
2023-03-10T20:05:59.178Z,5.93
2023-03-10T20:08:27.229Z,5.38
2023-03-10T20:11:01.567Z,3.17
2023-03-10T20:13:31.339Z,4.00
2023-03-10T20:16:00.230Z,8.82
2023-03-10T20:18:28.220Z,6.70
2023-03-10T20:20:56.147Z,6.20
2023-03-10T20:23:24.224Z,7.10
2023-03-10T20:25:52.229Z,4.18
2023-03-10T20:28:20.143Z,6.03
2023-03-10T20:30:49.502Z,6.10
2023-03-10T20:33:20.344Z,4.80
2023-03-10T20:35:48.402Z,5.10
2023-03-10T20:38:16.487Z,6.10
2023-03-10T20:40:44.538Z,4.40
2023-03-10T20:43:13.138Z,5.72
2023-03-10T20:45:42.002Z,6.20
2023-03-10T20:48:11.767Z,6.90
2023-03-10T20:50:39.778Z,9.73
2023-03-10T20:53:07.834Z,4.88
2023-03-10T20:55:35.835Z,6.32
2023-03-10T20:58:03.871Z,6.43
2023-03-10T21:00:31.995Z,3.20
2023-03-10T21:03:00.849Z,6.55
2023-03-10T21:05:30.204Z,6.82
2023-03-10T21:07:59.012Z,3.75
2023-03-10T21:10:27.081Z,8.07
2023-03-10T21:12:55.269Z,5.55
2023-03-10T21:15:24.262Z,7.00
2023-03-10T21:17:52.773Z,4.43
2023-03-10T21:20:22.947Z,7.47
2023-03-10T21:22:52.621Z,5.73
2023-03-10T21:25:23.090Z,5.13
2023-03-10T21:27:52.675Z,1.98
2023-03-10T21:30:21.642Z,3.93
2023-03-10T21:32:49.629Z,6.03
2023-03-10T21:35:17.831Z,4.00
2023-03-10T21:37:47.450Z,6.18
2023-03-10T21:40:19.718Z,6.75
2023-03-10T21:42:48.418Z,5.43
2023-03-10T21:45:18.974Z,6.55
2023-03-10T21:47:47.448Z,6.68
2023-03-10T21:50:16.721Z,5.63
2023-03-10T21:52:45.184Z,7.53
2023-03-10T21:55:19.934Z,5.13
2023-03-10T21:57:48.623Z,4.97
2023-03-10T22:00:19.336Z,5.27
2023-03-10T22:02:48.275Z,4.97
2023-03-10T22:05:18.081Z,3.90
2023-03-10T22:07:46.728Z,9.10
2023-03-10T22:10:16.791Z,6.70
2023-03-10T22:12:44.878Z,5.13
2023-03-10T22:15:17.260Z,5.50
2023-03-10T22:17:45.292Z,2.63
2023-03-10T22:20:18.368Z,4.22
2023-03-10T22:22:46.522Z,2.78
2023-03-10T22:25:16.631Z,4.87
2023-03-10T22:27:46.092Z,3.80
2023-03-10T22:30:15.023Z,4.10
2023-03-10T22:32:43.178Z,3.80
2023-03-10T22:35:11.630Z,2.80
2023-03-10T22:37:40.859Z,4.40
2023-03-10T22:40:11.043Z,3.97
2023-03-10T22:42:41.297Z,5.07
2023-03-10T22:45:16.874Z,4.38
2023-03-10T22:47:45.174Z,7.07
2023-03-10T22:50:15.994Z,5.68
2023-03-10T22:52:43.991Z,4.30
2023-03-10T22:55:14.697Z,4.82
2023-03-10T22:57:44.159Z,5.18
2023-03-10T23:00:15.316Z,4.43
2023-03-10T23:02:43.428Z,2.87
2023-03-10T23:05:11.735Z,3.60
2023-03-10T23:07:40.320Z,3.30
2023-03-10T23:10:10.296Z,6.05
2023-03-10T23:12:40.648Z,6.82
2023-03-10T23:15:24.088Z,2.25
2023-03-10T23:17:52.689Z,4.27
2023-03-10T23:20:20.816Z,2.10
2023-03-10T23:22:48.873Z,3.45
2023-03-10T23:25:21.231Z,4.82
2023-03-10T23:27:49.273Z,3.15
2023-03-10T23:30:20.242Z,6.50
2023-03-10T23:32:50.821Z,3.55
2023-03-10T23:35:21.609Z,5.88
2023-03-10T23:37:49.719Z,3.65
2023-03-10T23:40:20.773Z,4.00
2023-03-10T23:42:49.159Z,6.50
2023-03-10T23:45:21.066Z,6.00
2023-03-10T23:47:50.587Z,5.80
2023-03-10T23:50:22.012Z,7.53
2023-03-10T23:52:50.267Z,4.22
2023-03-10T23:55:21.166Z,4.07
2023-03-10T23:57:49.396Z,2.90
